createdAt,value
2022-11-26T00:01:41.773Z,12.09
2022-11-26T00:04:09.278Z,12.07
2022-11-26T00:06:41.820Z,12.06
2022-11-26T00:09:15.441Z,12.06
2022-11-26T00:11:42.610Z,12.05
2022-11-26T00:14:14.884Z,12.04
2022-11-26T00:16:42.444Z,12.04
2022-11-26T00:19:09.213Z,12.03
2022-11-26T00:21:38.093Z,12.03
2022-11-26T00:24:05.500Z,12.02
2022-11-26T00:26:32.314Z,12.02
2022-11-26T00:29:00.287Z,12.02
2022-11-26T00:31:27.828Z,12.01
2022-11-26T00:33:54.994Z,12.01
2022-11-26T00:36:27.773Z,12.00
2022-11-26T00:39:03.645Z,11.98
2022-11-26T00:41:38.212Z,11.99
2022-11-26T00:44:22.981Z,11.98
2022-11-26T00:46:50.258Z,12.00
2022-11-26T00:49:17.367Z,11.99
2022-11-26T00:51:44.690Z,11.99
2022-11-26T00:54:14.528Z,11.98
2022-11-26T00:56:41.400Z,11.99
2022-11-26T00:59:12.766Z,11.98
2022-11-26T01:01:39.558Z,11.99
2022-11-26T01:04:06.362Z,11.99
2022-11-26T01:06:35.106Z,11.99
2022-11-26T01:09:02.335Z,11.98
2022-11-26T01:11:29.269Z,11.98
2022-11-26T01:13:56.145Z,11.99
2022-11-26T01:16:22.860Z,12.00
2022-11-26T01:18:52.094Z,11.99
2022-11-26T01:21:19.719Z,12.01
2022-11-26T01:23:46.944Z,12.02
2022-11-26T01:26:24.738Z,12.02
2022-11-26T01:28:51.757Z,12.03
2022-11-26T01:31:22.708Z,12.02
2022-11-26T01:33:50.010Z,12.04
2022-11-26T01:36:21.009Z,12.04
2022-11-26T01:38:47.783Z,12.05
2022-11-26T01:41:27.405Z,12.05
2022-11-26T01:43:54.739Z,12.08
2022-11-26T01:46:22.460Z,12.09
2022-11-26T01:48:50.278Z,12.09
2022-11-26T01:51:24.350Z,12.09
2022-11-26T01:53:53.189Z,12.10
2022-11-26T01:56:19.840Z,12.10
2022-11-26T01:58:50.999Z,12.09
2022-11-26T02:01:19.510Z,12.10
2022-11-26T02:04:13.582Z,12.09
2022-11-26T02:06:40.905Z,12.10
2022-11-26T02:09:09.373Z,12.11
2022-11-26T02:11:36.394Z,12.10
2022-11-26T02:14:07.693Z,12.09
2022-11-26T02:16:56.152Z,12.12
2022-11-26T02:19:33.660Z,12.11
2022-11-26T02:22:30.721Z,12.12
2022-11-26T02:25:05.962Z,12.11
2022-11-26T02:27:54.458Z,12.11
2022-11-26T02:30:21.310Z,12.12
2022-11-26T02:32:58.518Z,12.10
2022-11-26T02:35:48.268Z,12.11
2022-11-26T02:38:23.477Z,12.12
2022-11-26T02:40:52.118Z,12.13
2022-11-26T02:43:19.445Z,12.12
2022-11-26T02:45:51.372Z,12.12
2022-11-26T02:48:22.945Z,12.12
2022-11-26T02:50:56.989Z,12.13
2022-11-26T02:53:26.422Z,12.14
2022-11-26T02:56:05.936Z,12.13
2022-11-26T02:58:33.474Z,12.14
2022-11-26T03:01:02.162Z,12.14
2022-11-26T03:03:39.654Z,12.15
2022-11-26T03:06:09.504Z,12.14
2022-11-26T03:08:36.535Z,12.16
2022-11-26T03:11:03.381Z,12.16
2022-11-26T03:13:30.017Z,12.16
2022-11-26T03:15:57.014Z,12.16
2022-11-26T03:18:23.829Z,12.17
2022-11-26T03:20:52.551Z,12.17
2022-11-26T03:23:19.494Z,12.17
2022-11-26T03:25:46.242Z,12.17
2022-11-26T03:28:13.054Z,12.17
2022-11-26T03:30:39.813Z,12.18
2022-11-26T03:33:06.589Z,12.18
2022-11-26T03:35:33.276Z,12.18
2022-11-26T03:37:59.978Z,12.18
2022-11-26T03:40:26.763Z,12.18
2022-11-26T03:42:53.490Z,12.18
2022-11-26T03:45:20.165Z,12.19
2022-11-26T03:47:46.910Z,12.19
2022-11-26T03:50:13.569Z,12.19
2022-11-26T03:52:40.373Z,12.19
2022-11-26T03:55:07.502Z,12.19
2022-11-26T03:57:34.247Z,12.18
2022-11-26T04:00:01.018Z,12.20
2022-11-26T04:02:27.983Z,12.19
2022-11-26T04:04:54.681Z,12.19
2022-11-26T04:07:21.515Z,12.21
2022-11-26T04:09:48.229Z,12.21
2022-11-26T04:12:14.952Z,12.21
2022-11-26T04:14:41.889Z,12.21
2022-11-26T04:17:08.774Z,12.21
2022-11-26T04:19:35.425Z,12.21
2022-11-26T04:22:02.162Z,12.21
2022-11-26T04:24:28.967Z,12.20
2022-11-26T04:26:55.745Z,12.22
2022-11-26T04:29:22.477Z,12.21
2022-11-26T04:31:49.330Z,12.21
2022-11-26T04:34:16.042Z,12.21
2022-11-26T04:36:42.743Z,12.19
2022-11-26T04:39:09.473Z,12.20
2022-11-26T04:41:36.137Z,12.19
2022-11-26T04:44:02.838Z,12.19
2022-11-26T04:46:29.603Z,12.19
2022-11-26T04:49:01.211Z,12.18
2022-11-26T04:51:29.183Z,12.19
2022-11-26T04:53:56.079Z,12.18
2022-11-26T04:56:23.750Z,12.18
2022-11-26T04:58:50.973Z,12.18
2022-11-26T05:01:17.699Z,12.17
2022-11-26T05:03:44.407Z,12.17
2022-11-26T05:06:11.754Z,12.18
2022-11-26T05:08:38.398Z,12.17
2022-11-26T05:11:09.248Z,12.16
2022-11-26T05:13:37.289Z,12.16
2022-11-26T05:16:04.112Z,12.16
2022-11-26T05:18:30.877Z,12.15
2022-11-26T05:20:57.507Z,12.15
2022-11-26T05:23:24.257Z,12.14
2022-11-26T05:25:51.518Z,12.14
2022-11-26T05:28:18.279Z,12.15
2022-11-26T05:30:44.965Z,12.14
2022-11-26T05:33:11.754Z,12.12
2022-11-26T05:35:38.579Z,12.12
2022-11-26T05:38:05.345Z,12.12
2022-11-26T05:40:32.285Z,12.10
2022-11-26T05:42:59.080Z,12.11
2022-11-26T05:45:25.820Z,12.10
2022-11-26T05:47:52.586Z,12.09
2022-11-26T05:50:19.397Z,12.10
2022-11-26T05:52:46.160Z,12.09
2022-11-26T05:55:13.055Z,12.07
2022-11-26T05:57:39.825Z,12.06
2022-11-26T06:00:07.265Z,12.05
2022-11-26T06:02:38.808Z,12.06
2022-11-26T06:05:06.259Z,12.05
2022-11-26T06:07:33.226Z,12.04
2022-11-26T06:10:00.034Z,12.03
2022-11-26T06:12:26.866Z,12.02
2022-11-26T06:14:53.591Z,12.01
2022-11-26T06:17:20.920Z,12.00
2022-11-26T06:19:47.682Z,12.00
2022-11-26T06:22:14.383Z,12.00
2022-11-26T06:24:41.165Z,12.00
2022-11-26T06:27:07.893Z,11.98
2022-11-26T06:29:34.699Z,11.97
2022-11-26T06:32:01.444Z,11.97
2022-11-26T06:34:28.593Z,11.97
2022-11-26T06:36:55.335Z,11.96
2022-11-26T06:39:22.131Z,11.95
2022-11-26T06:41:48.801Z,11.94
2022-11-26T06:44:15.606Z,11.94
2022-11-26T06:46:42.373Z,11.92
2022-11-26T06:49:10.377Z,11.91
2022-11-26T06:51:37.537Z,11.91
2022-11-26T06:54:04.988Z,11.89
2022-11-26T06:56:31.884Z,11.89
2022-11-26T06:58:58.728Z,11.87
2022-11-26T07:01:26.706Z,11.86
2022-11-26T07:03:53.958Z,11.85
2022-11-26T07:06:25.950Z,11.82
2022-11-26T07:08:54.326Z,11.82
2022-11-26T07:11:21.780Z,11.81
2022-11-26T07:13:48.724Z,11.80
2022-11-26T07:16:15.723Z,11.70
2022-11-26T07:18:42.613Z,11.57
2022-11-26T07:21:13.293Z,11.37
2022-11-26T07:23:40.887Z,11.17
2022-11-26T07:26:08.135Z,11.02
2022-11-26T07:28:35.682Z,10.95
2022-11-26T07:31:03.696Z,10.87
2022-11-26T07:33:30.604Z,10.80
2022-11-26T07:36:01.661Z,10.71
2022-11-26T07:38:29.622Z,10.66
2022-11-26T07:41:03.596Z,10.58
2022-11-26T07:43:30.446Z,10.54
2022-11-26T07:45:57.176Z,10.52
2022-11-26T07:48:23.926Z,10.51
2022-11-26T07:50:50.660Z,10.53
2022-11-26T07:53:17.482Z,10.57
2022-11-26T07:55:50.151Z,10.61
2022-11-26T07:58:18.255Z,10.69
2022-11-26T08:00:45.174Z,10.69
2022-11-26T08:03:11.874Z,10.68
2022-11-26T08:05:43.098Z,10.70
2022-11-26T08:08:10.637Z,10.78
2022-11-26T08:10:37.602Z,10.83
2022-11-26T08:13:04.548Z,10.86
2022-11-26T08:15:32.377Z,10.86
2022-11-26T08:17:59.262Z,10.87
2022-11-26T08:20:29.080Z,10.93
2022-11-26T08:22:56.101Z,10.96
2022-11-26T08:25:22.775Z,10.98
2022-11-26T08:27:49.539Z,10.91
2022-11-26T08:30:16.466Z,10.73
2022-11-26T08:32:43.230Z,10.59
2022-11-26T08:35:09.981Z,10.56
2022-11-26T08:37:36.743Z,10.54
2022-11-26T08:40:04.196Z,10.42
2022-11-26T08:42:31.041Z,10.29
2022-11-26T08:44:57.851Z,10.26
2022-11-26T08:47:24.796Z,10.26
2022-11-26T08:49:51.909Z,10.38
2022-11-26T08:52:18.625Z,10.50
2022-11-26T08:54:45.764Z,10.61
2022-11-26T08:57:13.909Z,10.74
2022-11-26T08:59:41.402Z,10.86
2022-11-26T09:02:17.366Z,10.95
2022-11-26T09:04:45.471Z,11.05
2022-11-26T09:07:12.332Z,11.11
2022-11-26T09:09:39.068Z,11.16
2022-11-26T09:12:05.995Z,11.22
2022-11-26T09:14:39.482Z,11.32
2022-11-26T09:17:07.356Z,11.37
2022-11-26T09:19:34.087Z,11.39
2022-11-26T09:22:01.038Z,11.39
2022-11-26T09:24:27.981Z,11.40
2022-11-26T09:26:54.758Z,11.35
2022-11-26T09:29:23.133Z,11.34
2022-11-26T09:32:21.469Z,11.30
2022-11-26T09:34:37.510Z,11.27
2022-11-26T09:37:04.346Z,11.29
2022-11-26T09:39:31.133Z,11.39
2022-11-26T09:42:08.482Z,11.43
2022-11-26T09:45:10.590Z,11.43
2022-11-26T09:47:43.965Z,11.39
2022-11-26T09:50:13.424Z,11.44
2022-11-26T09:52:49.203Z,11.53
2022-11-26T09:55:24.183Z,11.55
2022-11-26T09:58:26.680Z,11.58
2022-11-26T10:00:56.336Z,11.57
2022-11-26T10:03:25.829Z,11.57
2022-11-26T10:06:02.573Z,11.68
2022-11-26T10:08:41.337Z,11.55
2022-11-26T10:11:30.277Z,11.38
2022-11-26T10:14:02.806Z,11.46
2022-11-26T10:16:41.208Z,11.60
2022-11-26T10:19:18.976Z,11.71
2022-11-26T10:22:00.234Z,11.69
2022-11-26T10:24:31.265Z,11.77
2022-11-26T10:27:01.118Z,11.82
2022-11-26T10:29:35.577Z,11.92
2022-11-26T10:32:12.722Z,12.01
2022-11-26T10:34:46.414Z,12.03
2022-11-26T10:37:13.745Z,12.03
2022-11-26T10:39:40.789Z,12.08
2022-11-26T10:42:17.468Z,12.17
2022-11-26T10:44:44.886Z,12.26
2022-11-26T10:47:31.699Z,12.45
2022-11-26T10:50:14.420Z,12.62
2022-11-26T10:52:52.641Z,12.74
2022-11-26T10:55:29.400Z,12.77
2022-11-26T10:58:06.313Z,12.80
2022-11-26T11:00:44.242Z,12.77
2022-11-26T11:06:21.902Z,12.64
2022-11-26T11:08:50.739Z,12.62
2022-11-26T11:11:22.835Z,12.51
2022-11-26T11:13:49.737Z,12.56
2022-11-26T11:16:29.111Z,12.53
2022-11-26T11:18:57.469Z,12.56
2022-11-26T11:21:30.402Z,12.55
2022-11-26T11:24:14.777Z,12.41
2022-11-26T11:26:44.013Z,12.31
2022-11-26T11:29:29.146Z,12.16
2022-11-26T11:31:57.425Z,12.03
2022-11-26T11:34:30.904Z,12.10
2022-11-26T11:37:14.803Z,12.22
2022-11-26T11:39:42.951Z,12.14
2022-11-26T11:42:29.246Z,11.92
2022-11-26T11:44:56.913Z,11.93
2022-11-26T11:47:43.245Z,12.01
2022-11-26T11:50:19.059Z,12.11
2022-11-26T11:52:48.845Z,12.12
2022-11-26T11:55:27.141Z,12.04
2022-11-26T11:58:04.615Z,11.99
2022-11-26T12:00:53.662Z,12.03
2022-11-26T12:03:29.410Z,12.05
2022-11-26T12:06:32.021Z,11.94
2022-11-26T12:09:17.890Z,11.92
2022-11-26T12:12:01.948Z,12.00
2022-11-26T12:14:44.814Z,11.96
2022-11-26T12:17:33.816Z,11.83
2022-11-26T12:20:09.056Z,11.76
2022-11-26T12:22:59.089Z,11.84
2022-11-26T12:25:37.321Z,11.92
2022-11-26T12:28:11.774Z,11.92
2022-11-26T12:30:46.031Z,11.87
2022-11-26T12:33:20.870Z,11.94
2022-11-26T12:35:57.021Z,12.01
2022-11-26T12:38:35.017Z,12.08
2022-11-26T12:41:24.366Z,12.20
2022-11-26T12:44:01.682Z,12.29
2022-11-26T12:46:37.179Z,12.43
2022-11-26T12:49:12.626Z,12.48
2022-11-26T12:51:54.626Z,12.47
2022-11-26T12:54:39.433Z,12.43
2022-11-26T12:57:22.513Z,12.43
2022-11-26T12:59:56.737Z,12.33
2022-11-26T13:02:30.552Z,12.10
2022-11-26T13:04:59.048Z,12.03
2022-11-26T13:07:47.934Z,12.10
2022-11-26T13:10:30.327Z,12.18
2022-11-26T13:13:16.550Z,12.30
2022-11-26T13:16:14.491Z,12.15
2022-11-26T13:18:47.674Z,12.03
2022-11-26T13:21:24.298Z,11.91
2022-11-26T13:24:28.172Z,11.86
2022-11-26T13:27:16.875Z,11.80
2022-11-26T13:29:55.587Z,11.83
2022-11-26T13:32:43.409Z,11.82
2022-11-26T13:35:31.614Z,11.70
2022-11-26T13:38:48.775Z,11.80
2022-11-26T13:41:27.649Z,11.78
2022-11-26T13:44:09.436Z,11.72
2022-11-26T13:46:58.747Z,11.67
2022-11-26T13:49:42.212Z,11.75
2022-11-26T13:52:23.844Z,11.89
2022-11-26T13:55:19.745Z,11.99
2022-11-26T13:57:48.961Z,11.94
2022-11-26T14:00:29.730Z,11.79
2022-11-26T14:02:58.644Z,11.85
2022-11-26T14:05:50.823Z,12.02
2022-11-26T14:08:35.517Z,12.11
2022-11-26T14:11:02.388Z,12.14
2022-11-26T14:13:29.051Z,12.11
2022-11-26T14:16:07.766Z,12.08
2022-11-26T14:18:50.601Z,12.04
2022-11-26T14:21:18.828Z,12.03
2022-11-26T14:23:54.738Z,11.97
2022-11-26T14:26:28.718Z,11.82
2022-11-26T14:29:07.751Z,11.69
2022-11-26T14:31:36.426Z,11.59
2022-11-26T14:34:14.275Z,11.57
2022-11-26T14:36:56.457Z,11.65
2022-11-26T14:39:23.747Z,11.70
2022-11-26T14:42:05.169Z,11.69
2022-11-26T14:44:34.417Z,11.69
2022-11-26T14:47:08.641Z,11.72
2022-11-26T14:49:57.770Z,11.75
2022-11-26T14:52:36.319Z,11.72
2022-11-26T14:55:07.425Z,11.58
2022-11-26T14:57:48.357Z,11.39
2022-11-26T15:00:15.260Z,11.31
2022-11-26T15:02:46.096Z,11.18
2022-11-26T15:05:16.969Z,11.16
2022-11-26T15:07:44.274Z,11.02
2022-11-26T15:10:14.380Z,10.86
2022-11-26T15:12:42.607Z,10.78
2022-11-26T15:15:14.836Z,10.72
2022-11-26T15:17:45.265Z,10.69
2022-11-26T15:20:16.109Z,10.59
2022-11-26T15:22:51.614Z,10.56
2022-11-26T15:25:25.471Z,10.45
2022-11-26T15:28:18.804Z,10.28
2022-11-26T15:30:56.171Z,10.21
2022-11-26T15:33:23.956Z,10.16
2022-11-26T15:35:57.446Z,10.10
2022-11-26T15:38:26.504Z,10.09
2022-11-26T15:40:54.477Z,10.11
2022-11-26T15:43:33.899Z,10.11
2022-11-26T15:46:13.155Z,10.09
2022-11-26T15:48:58.559Z,10.09
2022-11-26T15:51:35.811Z,10.11
2022-11-26T15:54:20.718Z,10.16
2022-11-26T15:56:54.164Z,10.14
2022-11-26T15:59:21.623Z,10.17
2022-11-26T16:01:48.427Z,10.23
2022-11-26T16:04:51.760Z,10.31
2022-11-26T16:07:21.757Z,10.32
2022-11-26T16:09:49.868Z,10.35
2022-11-26T16:12:28.530Z,10.38
2022-11-26T16:15:23.013Z,10.46
2022-11-26T16:17:50.715Z,10.58
2022-11-26T16:20:28.298Z,10.66
2022-11-26T16:22:58.154Z,10.74
2022-11-26T16:25:30.657Z,10.83
2022-11-26T16:28:09.586Z,10.91
2022-11-26T16:30:37.555Z,10.99
2022-11-26T16:33:05.039Z,11.05
2022-11-26T16:35:47.590Z,11.12
2022-11-26T16:38:40.346Z,11.20
2022-11-26T16:41:12.188Z,11.23
2022-11-26T16:43:38.977Z,11.30
2022-11-26T16:46:12.001Z,11.34
2022-11-26T16:48:39.237Z,11.38
2022-11-26T16:51:06.049Z,11.42
2022-11-26T16:53:32.829Z,11.45
2022-11-26T16:56:00.121Z,11.50
2022-11-26T16:58:37.842Z,11.52
2022-11-26T17:01:04.646Z,11.57
2022-11-26T17:03:33.565Z,11.60
2022-11-26T17:06:03.657Z,11.62
2022-11-26T17:08:30.806Z,11.66
2022-11-26T17:14:48.201Z,11.56
2022-11-26T17:17:20.454Z,11.60
2022-11-26T17:19:50.935Z,11.67
2022-11-26T17:22:17.641Z,11.72
2022-11-26T17:24:44.416Z,11.75
2022-11-26T17:27:16.714Z,11.78
2022-11-26T17:29:44.973Z,11.83
2022-11-26T17:32:13.414Z,11.85
2022-11-26T17:34:41.018Z,11.86
2022-11-26T17:37:14.349Z,11.88
2022-11-26T17:39:41.476Z,11.92
2022-11-26T17:42:08.403Z,11.94
2022-11-26T17:44:35.165Z,11.96
2022-11-26T17:47:16.505Z,11.97
2022-11-26T17:49:45.276Z,12.01
2022-11-26T17:52:12.201Z,12.01
2022-11-26T17:54:39.367Z,12.01
2022-11-26T17:57:06.387Z,12.04
2022-11-26T17:59:33.378Z,12.04
2022-11-26T18:02:02.952Z,12.06
2022-11-26T18:04:30.143Z,12.07
2022-11-26T18:07:02.939Z,12.09
2022-11-26T18:09:29.701Z,12.10
2022-11-26T18:11:57.171Z,12.10
2022-11-26T18:14:24.534Z,12.11
2022-11-26T18:16:52.298Z,12.12
2022-11-26T18:19:20.970Z,12.11
2022-11-26T18:21:50.715Z,12.14
2022-11-26T18:24:17.933Z,12.16
2022-11-26T18:26:44.596Z,12.16
2022-11-26T18:29:11.646Z,12.15
2022-11-26T18:31:39.830Z,12.16
2022-11-26T18:34:07.404Z,12.16
2022-11-26T18:36:34.205Z,12.16
2022-11-26T18:39:03.270Z,12.16
2022-11-26T18:41:29.974Z,12.16
2022-11-26T18:43:56.764Z,12.17
2022-11-26T18:46:23.746Z,12.17
2022-11-26T18:48:51.161Z,12.15
2022-11-26T18:51:18.413Z,12.14
2022-11-26T18:53:45.433Z,12.15
2022-11-26T18:56:14.974Z,12.12
2022-11-26T18:58:42.384Z,12.14
2022-11-26T19:01:14.836Z,12.12
2022-11-26T19:03:44.092Z,12.12
2022-11-26T19:06:15.329Z,12.10
2022-11-26T19:08:42.727Z,12.11
2022-11-26T19:11:15.783Z,12.08
2022-11-26T19:13:42.964Z,12.07
2022-11-26T19:16:16.605Z,12.04
2022-11-26T19:18:45.612Z,12.04
2022-11-26T19:21:22.966Z,12.02
2022-11-26T19:23:50.689Z,12.01
2022-11-26T19:26:19.174Z,11.98
2022-11-26T19:28:46.588Z,11.98
2022-11-26T19:31:15.938Z,11.95
2022-11-26T19:33:43.633Z,11.94
2022-11-26T19:36:13.364Z,11.92
2022-11-26T19:38:40.174Z,11.92
2022-11-26T19:41:07.258Z,11.91
2022-11-26T19:43:36.313Z,11.88
2022-11-26T19:46:29.405Z,11.88
2022-11-26T19:48:56.209Z,11.89
2022-11-26T19:51:24.478Z,11.86
2022-11-26T19:53:53.130Z,11.84
2022-11-26T19:56:25.097Z,11.84
2022-11-26T19:58:54.210Z,11.83
2022-11-26T20:01:22.271Z,11.81
2022-11-26T20:03:49.813Z,11.81
2022-11-26T20:06:22.934Z,11.79
2022-11-26T20:08:51.811Z,11.79
2022-11-26T20:11:22.444Z,11.77
2022-11-26T20:13:49.337Z,11.88
2022-11-26T20:16:18.641Z,11.80
2022-11-26T20:18:47.355Z,11.76
2022-11-26T20:21:20.454Z,11.73
2022-11-26T20:23:49.530Z,11.73
2022-11-26T20:26:17.838Z,11.71
2022-11-26T20:28:45.415Z,11.71
2022-11-26T20:31:13.775Z,11.69
2022-11-26T20:33:41.123Z,11.68
2022-11-26T20:36:10.787Z,11.68
2022-11-26T20:38:38.070Z,11.69
2022-11-26T20:41:08.434Z,11.67
2022-11-26T20:43:35.483Z,11.66
2022-11-26T20:46:04.643Z,11.65
2022-11-26T20:48:35.288Z,11.64
2022-11-26T20:51:06.496Z,11.64
2022-11-26T20:53:35.074Z,11.64
2022-11-26T20:56:02.427Z,11.63
2022-11-26T20:58:29.549Z,11.62
2022-11-26T21:00:57.662Z,11.60
2022-11-26T21:03:25.691Z,11.59
2022-11-26T21:05:52.847Z,11.58
2022-11-26T21:08:20.535Z,11.56
2022-11-26T21:10:48.336Z,11.53
2022-11-26T21:13:16.769Z,11.51
2022-11-26T21:15:44.573Z,11.49
2022-11-26T21:18:11.446Z,11.49
2022-11-26T21:20:42.229Z,11.46
2022-11-26T21:23:09.156Z,11.57
2022-11-26T21:25:41.239Z,11.48
2022-11-26T21:28:08.764Z,11.43
2022-11-26T21:30:36.579Z,11.42
2022-11-26T21:33:09.079Z,11.42
2022-11-26T21:35:37.020Z,11.40
2022-11-26T21:38:05.051Z,11.39
2022-11-26T21:40:36.567Z,11.38
2022-11-26T21:43:09.375Z,11.36
2022-11-26T21:45:39.347Z,11.37
2022-11-26T21:48:07.022Z,11.37
2022-11-26T21:50:33.697Z,11.37
2022-11-26T21:53:01.889Z,11.36
2022-11-26T21:55:28.574Z,11.35
2022-11-26T21:57:55.259Z,11.34
2022-11-26T22:00:22.120Z,11.34
2022-11-26T22:02:48.982Z,11.34
2022-11-26T22:05:15.728Z,11.32
2022-11-26T22:07:42.594Z,11.31
2022-11-26T22:10:10.037Z,11.29
2022-11-26T22:12:37.073Z,11.28
2022-11-26T22:15:04.046Z,11.26
2022-11-26T22:17:30.722Z,11.22
2022-11-26T22:19:57.454Z,11.21
2022-11-26T22:22:25.860Z,11.20
2022-11-26T22:24:53.547Z,11.20
2022-11-26T22:27:20.374Z,11.20
2022-11-26T22:29:48.017Z,11.19
2022-11-26T22:32:14.769Z,11.19
2022-11-26T22:34:41.555Z,11.17
2022-11-26T22:37:08.318Z,11.18
2022-11-26T22:39:34.976Z,11.17
2022-11-26T22:42:01.889Z,11.17
2022-11-26T22:44:28.559Z,11.17
2022-11-26T22:46:55.241Z,11.15
2022-11-26T22:49:22.133Z,11.14
2022-11-26T22:51:49.146Z,11.13
2022-11-26T22:54:16.247Z,11.11
2022-11-26T22:56:43.032Z,11.09
2022-11-26T22:59:12.217Z,11.06
2022-11-26T23:01:39.231Z,11.07
2022-11-26T23:04:09.055Z,11.04
2022-11-26T23:06:36.650Z,11.05
2022-11-26T23:09:05.889Z,11.02
2022-11-26T23:11:35.996Z,11.01
2022-11-26T23:14:04.951Z,10.99
2022-11-26T23:16:31.710Z,10.97
2022-11-26T23:18:58.570Z,10.96
2022-11-26T23:21:28.283Z,10.93
2022-11-26T23:23:55.469Z,10.94
2022-11-26T23:26:27.497Z,10.91
2022-11-26T23:28:56.025Z,10.91
2022-11-26T23:31:25.747Z,10.88
2022-11-26T23:33:52.812Z,10.88
2022-11-26T23:36:19.554Z,10.87
2022-11-26T23:38:46.371Z,10.85
2022-11-26T23:41:13.026Z,10.82
2022-11-26T23:43:40.011Z,10.81
2022-11-26T23:46:24.342Z,10.81
2022-11-26T23:48:51.524Z,10.80
2022-11-26T23:51:21.055Z,10.78
2022-11-26T23:53:48.773Z,10.78
2022-11-26T23:56:18.929Z,10.75
2022-11-26T23:58:51.019Z,10.74
